createdAt,value
2022-10-13T00:01:48.515Z,101813.91
2022-10-13T00:04:14.998Z,101816.44
2022-10-13T00:06:41.518Z,101818.97
2022-10-13T00:09:08.065Z,101824.00
2022-10-13T00:11:34.578Z,101817.56
2022-10-13T00:14:04.097Z,101818.41
2022-10-13T00:16:32.311Z,101818.03
2022-10-13T00:18:59.551Z,101808.84
2022-10-13T00:21:27.497Z,101810.53
2022-10-13T00:23:54.870Z,101808.50
2022-10-13T00:26:24.573Z,101806.41
2022-10-13T00:28:53.075Z,101812.50
2022-10-13T00:31:21.236Z,101802.31
2022-10-13T00:33:49.340Z,101797.91
2022-10-13T00:36:16.209Z,101786.22
2022-10-13T00:38:43.866Z,101798.94
2022-10-13T00:41:10.411Z,101798.94
2022-10-13T00:44:04.097Z,101807.28
2022-10-13T00:46:33.014Z,101811.84
2022-10-13T00:49:09.194Z,101802.22
2022-10-13T00:51:41.451Z,101799.88
2022-10-13T00:54:11.361Z,101801.09
2022-10-13T00:56:38.986Z,101798.94
2022-10-13T00:59:13.018Z,101796.81
2022-10-13T01:01:39.939Z,101801.56
2022-10-13T01:04:06.660Z,101796.72
2022-10-13T01:06:33.236Z,101792.53
2022-10-13T01:08:59.958Z,101796.59
2022-10-13T01:11:47.668Z,101791.75
2022-10-13T01:14:38.418Z,101796.03
2022-10-13T01:17:30.751Z,101786.97
2022-10-13T01:20:32.625Z,101779.56
2022-10-13T01:23:12.499Z,101791.31
2022-10-13T01:25:45.074Z,101789.84
2022-10-13T01:28:39.363Z,101785.81
2022-10-13T01:31:32.375Z,101775.16
2022-10-13T01:34:10.424Z,101773.19
2022-10-13T01:36:55.053Z,101772.72
2022-10-13T01:39:31.853Z,101770.38
2022-10-13T01:42:11.484Z,101765.31
2022-10-13T01:45:03.956Z,101772.81
2022-10-13T01:47:33.623Z,101767.91
2022-10-13T01:50:00.972Z,101763.72
2022-10-13T01:52:33.382Z,101766.41
2022-10-13T01:55:08.747Z,101766.81
2022-10-13T01:57:38.997Z,101758.00
2022-10-13T02:00:09.515Z,101763.41
2022-10-13T02:02:54.236Z,101760.03
2022-10-13T02:05:40.073Z,101750.06
2022-10-13T02:08:15.926Z,101747.19
2022-10-13T02:11:16.643Z,101742.13
2022-10-13T02:14:03.382Z,101748.38
2022-10-13T02:16:35.492Z,101741.09
2022-10-13T02:19:05.541Z,101740.25
2022-10-13T02:21:33.057Z,101737.56
2022-10-13T02:23:59.658Z,101743.81
2022-10-13T02:26:26.351Z,101738.38
2022-10-13T02:28:53.355Z,101738.38
2022-10-13T02:31:19.867Z,101726.53
2022-10-13T02:33:46.381Z,101734.31
2022-10-13T02:36:12.918Z,101729.72
2022-10-13T02:38:39.441Z,101722.28
2022-10-13T02:41:06.099Z,101729.00
2022-10-13T02:43:33.977Z,101723.19
2022-10-13T02:46:00.587Z,101718.06
2022-10-13T02:48:27.107Z,101717.53
2022-10-13T02:50:53.609Z,101725.09
2022-10-13T02:53:20.192Z,101726.03
2022-10-13T02:55:46.688Z,101714.66
2022-10-13T02:58:13.213Z,101703.44
2022-10-13T03:00:39.774Z,101712.84
2022-10-13T03:03:06.502Z,101707.72
2022-10-13T03:05:33.224Z,101699.22
2022-10-13T03:07:59.777Z,101705.13
2022-10-13T03:10:27.023Z,101697.28
2022-10-13T03:12:55.197Z,101710.28
2022-10-13T03:15:21.735Z,101702.41
2022-10-13T03:17:48.417Z,101694.94
2022-10-13T03:20:15.302Z,101695.56
2022-10-13T03:22:43.958Z,101694.16
2022-10-13T03:25:14.407Z,101687.34
2022-10-13T03:27:40.925Z,101689.69
2022-10-13T03:30:08.332Z,101688.66
2022-10-13T03:32:34.861Z,101689.13
2022-10-13T03:35:01.343Z,101696.84
2022-10-13T03:37:30.275Z,101680.38
2022-10-13T03:39:56.958Z,101692.53
2022-10-13T03:42:23.646Z,101692.38
2022-10-13T03:44:55.260Z,101694.47
2022-10-13T03:47:22.917Z,101688.69
2022-10-13T03:49:49.475Z,101692.03
2022-10-13T03:52:16.004Z,101690.81
2022-10-13T03:54:42.512Z,101688.38
2022-10-13T03:57:09.011Z,101690.88
2022-10-13T03:59:36.937Z,101689.47
2022-10-13T04:02:04.081Z,101684.69
2022-10-13T04:04:30.681Z,101683.47
2022-10-13T04:06:57.170Z,101685.81
2022-10-13T04:09:23.747Z,101682.88
2022-10-13T04:11:51.653Z,101687.09
2022-10-13T04:14:19.602Z,101684.84
2022-10-13T04:16:47.114Z,101684.84
2022-10-13T04:19:15.285Z,101679.22
2022-10-13T04:21:43.827Z,101684.22
2022-10-13T04:24:12.480Z,101683.22
2022-10-13T04:26:39.807Z,101680.28
2022-10-13T04:29:08.322Z,101675.53
2022-10-13T04:31:35.206Z,101672.81
2022-10-13T04:34:01.867Z,101672.41
2022-10-13T04:36:28.363Z,101671.59
2022-10-13T04:38:55.683Z,101669.69
2022-10-13T04:41:23.056Z,101674.09
2022-10-13T04:43:52.045Z,101661.56
2022-10-13T04:46:21.047Z,101660.53
2022-10-13T04:48:48.224Z,101662.22
2022-10-13T04:51:18.183Z,101654.06
2022-10-13T04:53:44.821Z,101651.34
2022-10-13T04:56:17.093Z,101649.47
2022-10-13T04:58:45.645Z,101649.47
2022-10-13T05:01:21.772Z,101643.22
2022-10-13T05:03:52.162Z,101650.31
2022-10-13T05:06:28.510Z,101640.28
2022-10-13T05:08:55.968Z,101637.78
2022-10-13T05:11:24.245Z,101627.75
2022-10-13T05:13:51.096Z,101626.94
2022-10-13T05:16:19.423Z,101629.66
2022-10-13T05:18:46.242Z,101629.66
2022-10-13T05:21:24.446Z,101639.47
2022-10-13T05:23:54.375Z,101637.78
2022-10-13T05:26:21.892Z,101630.28
2022-10-13T05:28:48.611Z,101629.03
2022-10-13T05:31:16.546Z,101615.28
2022-10-13T05:33:43.910Z,101628.66
2022-10-13T05:36:13.282Z,101623.22
2022-10-13T05:38:39.802Z,101616.56
2022-10-13T05:41:11.262Z,101605.72
2022-10-13T05:43:39.345Z,101603.00
2022-10-13T05:46:06.230Z,101608.44
2022-10-13T05:48:32.780Z,101606.75
2022-10-13T05:51:01.638Z,101606.53
2022-10-13T05:53:33.603Z,101607.41
2022-10-13T05:56:06.284Z,101610.09
2022-10-13T05:58:36.701Z,101603.63
2022-10-13T06:01:07.090Z,101606.34
2022-10-13T06:03:34.579Z,101609.06
2022-10-13T06:06:01.152Z,101611.75
2022-10-13T06:08:29.381Z,101608.03
2022-10-13T06:10:55.988Z,101609.06
2022-10-13T06:13:22.493Z,101605.50
2022-10-13T06:15:48.977Z,101599.88
2022-10-13T06:18:15.503Z,101601.75
2022-10-13T06:20:43.016Z,101601.56
2022-10-13T06:23:09.731Z,101594.91
2022-10-13T06:25:36.382Z,101606.59
2022-10-13T06:28:02.933Z,101602.84
2022-10-13T06:30:29.540Z,101600.78
2022-10-13T06:32:56.431Z,101598.88
2022-10-13T06:35:23.722Z,101608.50
2022-10-13T06:37:50.390Z,101601.03
2022-10-13T06:40:17.172Z,101600.59
2022-10-13T06:42:49.721Z,101602.94
2022-10-13T06:45:16.289Z,101600.84
2022-10-13T06:47:42.811Z,101601.28
2022-10-13T06:50:09.725Z,101605.50
2022-10-13T06:52:36.267Z,101604.03
2022-10-13T06:55:02.996Z,101605.13
2022-10-13T06:57:29.531Z,101608.09
2022-10-13T06:59:56.176Z,101600.19
2022-10-13T07:02:23.362Z,101599.34
2022-10-13T07:04:49.949Z,101599.78
2022-10-13T07:07:16.512Z,101588.53
2022-10-13T07:09:43.035Z,101586.06
2022-10-13T07:12:09.586Z,101597.16
2022-10-13T07:14:38.184Z,101588.59
2022-10-13T07:17:07.405Z,101588.81
2022-10-13T07:19:34.100Z,101597.19
2022-10-13T07:22:00.669Z,101585.72
2022-10-13T07:24:27.312Z,101591.38
2022-10-13T07:26:53.828Z,101587.00
2022-10-13T07:29:20.361Z,101587.22
2022-10-13T07:31:47.104Z,101587.44
2022-10-13T07:34:15.481Z,101585.97
2022-10-13T07:36:42.165Z,101591.63
2022-10-13T07:39:09.362Z,101586.41
2022-10-13T07:41:36.659Z,101579.53
2022-10-13T07:44:03.255Z,101587.94
2022-10-13T07:46:29.855Z,101575.59
2022-10-13T07:48:56.606Z,101584.00
2022-10-13T07:51:23.455Z,101589.66
2022-10-13T07:53:51.090Z,101592.56
2022-10-13T07:56:17.772Z,101582.94
2022-10-13T07:58:46.693Z,101570.38
2022-10-13T08:01:14.670Z,101572.47
2022-10-13T08:03:44.250Z,101554.47
2022-10-13T08:06:14.350Z,101567.44
2022-10-13T08:08:40.936Z,101571.19
2022-10-13T08:11:16.680Z,101575.19
2022-10-13T08:13:48.236Z,101583.34
2022-10-13T08:16:14.791Z,101586.28
2022-10-13T08:18:41.290Z,101580.00
2022-10-13T08:21:53.211Z,101569.31
2022-10-13T08:23:59.839Z,101571.16
2022-10-13T08:26:28.524Z,101567.56
2022-10-13T08:29:16.578Z,101561.28
2022-10-13T08:31:42.980Z,101561.47
2022-10-13T08:34:10.822Z,101561.44
2022-10-13T08:36:38.280Z,101565.22
2022-10-13T08:39:05.562Z,101553.44
2022-10-13T08:41:37.296Z,101552.56
2022-10-13T08:44:59.200Z,101557.78
2022-10-13T08:47:10.575Z,101570.13
2022-10-13T08:49:37.313Z,101567.13
2022-10-13T08:52:06.890Z,101569.63
2022-10-13T08:54:33.463Z,101567.69
2022-10-13T08:59:27.650Z,101575.56
2022-10-13T09:01:55.586Z,101576.16
2022-10-13T09:04:39.321Z,101568.16
2022-10-13T09:07:10.716Z,101552.56
2022-10-13T09:09:38.182Z,101553.59
2022-10-13T09:12:05.571Z,101551.84
2022-10-13T09:14:37.775Z,101551.78
2022-10-13T09:19:56.851Z,101567.84
2022-10-13T09:22:28.624Z,101571.56
2022-10-13T09:25:07.275Z,101574.03
2022-10-13T09:27:58.127Z,101569.34
2022-10-13T09:30:32.812Z,101573.06
2022-10-13T09:33:09.282Z,101567.31
2022-10-13T09:35:38.764Z,101555.72
2022-10-13T09:38:07.101Z,101559.00
2022-10-13T09:40:34.137Z,101553.69
2022-10-13T09:43:02.842Z,101558.84
2022-10-13T09:45:32.411Z,101545.31
2022-10-13T09:48:04.837Z,101548.19
2022-10-13T09:50:35.296Z,101542.41
2022-10-13T09:53:24.569Z,101542.94
2022-10-13T09:56:26.851Z,101534.88
2022-10-13T09:59:05.962Z,101533.97
2022-10-13T10:01:40.686Z,101542.53
2022-10-13T10:04:12.913Z,101529.25
2022-10-13T10:06:40.522Z,101527.03
2022-10-13T10:09:35.532Z,101521.50
2022-10-13T10:12:04.882Z,101506.63
2022-10-13T10:14:34.303Z,101507.34
2022-10-13T10:17:06.927Z,101504.31
2022-10-13T10:19:48.857Z,101515.38
2022-10-13T10:22:30.667Z,101512.28
2022-10-13T10:25:15.270Z,101515.16
2022-10-13T10:27:50.034Z,101512.53
2022-10-13T10:30:19.485Z,101511.59
2022-10-13T10:32:53.593Z,101504.56
2022-10-13T10:35:44.419Z,101515.03
2022-10-13T10:38:13.718Z,101496.47
2022-10-13T10:41:10.000Z,101493.88
2022-10-13T10:43:43.027Z,101503.50
2022-10-13T10:46:20.594Z,101496.84
2022-10-13T10:48:50.404Z,101495.28
2022-10-13T10:51:18.461Z,101490.53
2022-10-13T10:53:53.826Z,101497.53
2022-10-13T10:56:39.230Z,101493.50
2022-10-13T10:59:36.804Z,101494.06
2022-10-13T11:02:06.247Z,101493.97
2022-10-13T11:04:44.333Z,101497.38
2022-10-13T11:07:24.439Z,101484.41
2022-10-13T11:09:54.161Z,101486.88
2022-10-13T11:12:21.177Z,101490.34
2022-10-13T11:14:54.700Z,101487.13
2022-10-13T11:17:28.362Z,101479.00
2022-10-13T11:19:55.408Z,101479.22
2022-10-13T11:22:24.627Z,101477.53
2022-10-13T11:24:59.753Z,101473.13
2022-10-13T11:27:35.173Z,101471.63
2022-10-13T11:30:02.956Z,101475.78
2022-10-13T11:32:32.931Z,101478.13
2022-10-13T11:35:05.527Z,101468.06
2022-10-13T11:38:06.901Z,101468.25
2022-10-13T11:41:11.104Z,101463.09
2022-10-13T11:43:52.350Z,101462.44
2022-10-13T11:46:34.902Z,101460.41
2022-10-13T11:49:39.871Z,101457.47
2022-10-13T11:52:31.933Z,101464.97
2022-10-13T11:55:20.035Z,101457.06
2022-10-13T11:57:46.587Z,101457.41
2022-10-13T12:00:18.909Z,101461.31
2022-10-13T12:02:53.440Z,101458.56
2022-10-13T12:05:22.903Z,101455.56
2022-10-13T12:07:52.959Z,101448.66
2022-10-13T12:10:34.771Z,101445.44
2022-10-13T12:13:02.487Z,101439.94
2022-10-13T12:15:35.877Z,101435.59
2022-10-13T12:18:19.529Z,101435.59
2022-10-13T12:20:55.872Z,101425.78
2022-10-13T12:23:22.814Z,101432.94
2022-10-13T12:25:56.618Z,101423.03
2022-10-13T12:28:25.964Z,101424.09
2022-10-13T12:30:56.535Z,101429.13
2022-10-13T12:33:33.635Z,101422.56
2022-10-13T12:36:13.802Z,101427.78
2022-10-13T12:38:45.981Z,101428.34
2022-10-13T12:41:15.572Z,101428.78
2022-10-13T12:43:43.369Z,101430.19
2022-10-13T12:46:09.960Z,101428.53
2022-10-13T12:48:38.253Z,101419.72
2022-10-13T12:51:21.477Z,101423.13
2022-10-13T12:53:48.427Z,101424.63
2022-10-13T12:56:42.480Z,101419.31
2022-10-13T12:59:17.156Z,101418.81
2022-10-13T13:01:45.038Z,101417.72
2022-10-13T13:04:20.853Z,101421.13
2022-10-13T13:06:53.344Z,101418.63
2022-10-13T13:09:42.166Z,101416.44
2022-10-13T13:12:08.622Z,101415.03
2022-10-13T13:14:39.792Z,101415.44
2022-10-13T13:17:06.278Z,101418.03
2022-10-13T13:19:34.465Z,101410.13
2022-10-13T13:22:01.083Z,101405.34
2022-10-13T13:24:39.252Z,101411.13
2022-10-13T13:27:20.988Z,101410.16
2022-10-13T13:29:48.195Z,101408.00
2022-10-13T13:32:19.010Z,101411.00
2022-10-13T13:34:46.955Z,101408.25
2022-10-13T13:37:26.663Z,101413.47
2022-10-13T13:39:53.261Z,101413.22
2022-10-13T13:42:19.843Z,101412.72
2022-10-13T13:44:46.390Z,101408.66
2022-10-13T13:47:22.357Z,101410.06
2022-10-13T13:49:51.168Z,101406.84
2022-10-13T13:52:18.422Z,101406.84
2022-10-13T13:54:45.158Z,101397.53
2022-10-13T13:57:13.499Z,101401.91
2022-10-13T13:59:40.972Z,101390.09
2022-10-13T14:02:13.430Z,101400.25
2022-10-13T14:04:40.405Z,101400.25
2022-10-13T14:07:06.917Z,101398.59
2022-10-13T14:09:33.458Z,101395.25
2022-10-13T14:12:00.047Z,101393.84
2022-10-13T14:14:26.568Z,101400.66
2022-10-13T14:16:53.057Z,101395.69
2022-10-13T14:19:19.834Z,101395.69
2022-10-13T14:21:46.359Z,101398.34
2022-10-13T14:24:12.971Z,101392.00
2022-10-13T14:26:39.518Z,101395.00
2022-10-13T14:29:06.046Z,101390.03
2022-10-13T14:31:33.176Z,101392.78
2022-10-13T14:33:59.763Z,101383.69
2022-10-13T14:36:26.374Z,101387.53
2022-10-13T14:38:54.209Z,101388.88
2022-10-13T14:41:21.131Z,101383.59
2022-10-13T14:43:47.662Z,101378.97
2022-10-13T14:46:14.188Z,101379.22
2022-10-13T14:48:40.672Z,101386.59
2022-10-13T14:51:09.344Z,101372.88
2022-10-13T14:53:37.943Z,101373.16
2022-10-13T14:56:17.546Z,101374.22
2022-10-13T14:58:44.390Z,101376.41
2022-10-13T15:01:10.955Z,101376.41
2022-10-13T15:03:37.511Z,101368.38
2022-10-13T15:06:04.245Z,101370.06
2022-10-13T15:08:30.739Z,101372.81
2022-10-13T15:11:01.464Z,101374.72
2022-10-13T15:13:28.586Z,101367.31
2022-10-13T15:15:55.427Z,101361.00
2022-10-13T15:18:25.797Z,101368.56
2022-10-13T15:20:54.969Z,101361.09
2022-10-13T15:23:21.599Z,101365.91
2022-10-13T15:25:56.835Z,101366.88
2022-10-13T15:28:25.365Z,101365.63
2022-10-13T15:30:52.155Z,101371.00
2022-10-13T15:33:19.499Z,101372.16
2022-10-13T15:35:50.266Z,101369.44
2022-10-13T15:38:17.973Z,101374.59
2022-10-13T15:40:44.740Z,101372.84
2022-10-13T15:43:12.307Z,101377.13
2022-10-13T15:45:39.010Z,101384.94
2022-10-13T15:48:06.903Z,101371.28
2022-10-13T15:50:34.320Z,101375.22
2022-10-13T15:53:00.958Z,101373.66
2022-10-13T15:55:28.979Z,101379.25
2022-10-13T15:57:55.610Z,101371.03
2022-10-13T16:00:22.160Z,101379.88
2022-10-13T16:02:51.152Z,101369.78
2022-10-13T16:05:18.427Z,101365.13
2022-10-13T16:07:45.024Z,101378.94
2022-10-13T16:10:13.432Z,101374.81
2022-10-13T16:12:40.243Z,101372.88
2022-10-13T16:15:08.133Z,101371.78
2022-10-13T16:17:36.242Z,101377.88
2022-10-13T16:20:04.192Z,101379.25
2022-10-13T16:22:30.712Z,101377.34
2022-10-13T16:24:57.370Z,101378.41
2022-10-13T16:27:24.525Z,101381.16
2022-10-13T16:29:51.221Z,101379.78
2022-10-13T16:32:18.291Z,101375.38
2022-10-13T16:34:47.977Z,101370.13
2022-10-13T16:37:14.460Z,101374.22
2022-10-13T16:39:43.779Z,101377.25
2022-10-13T16:42:12.005Z,101378.34
2022-10-13T16:44:38.582Z,101378.88
2022-10-13T16:47:06.456Z,101381.59
2022-10-13T16:49:33.867Z,101373.59
2022-10-13T16:52:00.832Z,101384.31
2022-10-13T16:54:27.516Z,101377.69
2022-10-13T16:56:54.036Z,101382.06
2022-10-13T16:59:20.601Z,101379.00
2022-10-13T17:01:48.281Z,101374.25
2022-10-13T17:04:17.296Z,101375.31
2022-10-13T17:06:47.913Z,101372.78
2022-10-13T17:09:14.463Z,101379.06
2022-10-13T17:11:41.007Z,101385.09
2022-10-13T17:14:08.186Z,101382.34
2022-10-13T17:16:35.958Z,101373.50
2022-10-13T17:19:03.367Z,101372.38
2022-10-13T17:21:29.889Z,101375.06
2022-10-13T17:23:57.467Z,101376.69
2022-10-13T17:26:24.090Z,101374.22
2022-10-13T17:28:51.161Z,101388.47
2022-10-13T17:31:23.287Z,101383.75
2022-10-13T17:33:50.821Z,101389.75
2022-10-13T17:36:20.214Z,101389.47
2022-10-13T17:38:47.972Z,101394.66
2022-10-13T17:41:14.997Z,101392.41
2022-10-13T17:43:42.232Z,101395.41
2022-10-13T17:46:34.977Z,101392.09
2022-10-13T17:49:00.816Z,101385.69
2022-10-13T17:51:27.934Z,101390.63
2022-10-13T17:53:54.783Z,101382.34
2022-10-13T17:56:24.031Z,101387.25
2022-10-13T17:58:51.274Z,101383.63
2022-10-13T18:01:29.664Z,101381.03
2022-10-13T18:03:59.668Z,101376.88
2022-10-13T18:06:36.794Z,101378.22
2022-10-13T18:09:06.874Z,101377.66
2022-10-13T18:11:33.921Z,101380.91
2022-10-13T18:14:00.799Z,101376.53
2022-10-13T18:16:27.327Z,101374.28
2022-10-13T18:18:54.360Z,101385.78
2022-10-13T18:21:24.099Z,101375.28
2022-10-13T18:23:50.727Z,101373.06
2022-10-13T18:26:19.386Z,101377.16
2022-10-13T18:28:47.837Z,101380.97
2022-10-13T18:31:17.139Z,101381.50
2022-10-13T18:33:44.627Z,101381.75
2022-10-13T18:36:24.245Z,101379.72
2022-10-13T18:38:52.914Z,101381.88
2022-10-13T18:41:22.552Z,101380.16
2022-10-13T18:43:49.879Z,101378.16
2022-10-13T18:46:17.165Z,101376.50
2022-10-13T18:48:44.229Z,101382.50
2022-10-13T18:51:16.631Z,101390.16
2022-10-13T18:53:46.775Z,101387.94
2022-10-13T18:56:19.484Z,101388.66
2022-10-13T18:58:46.983Z,101381.78
2022-10-13T19:01:17.193Z,101380.63
2022-10-13T19:03:44.596Z,101382.22
2022-10-13T19:06:13.713Z,101378.06
2022-10-13T19:08:41.627Z,101376.63
2022-10-13T19:11:17.527Z,101377.03
2022-10-13T19:13:45.078Z,101381.72
2022-10-13T19:16:14.261Z,101383.03
2022-10-13T19:18:41.961Z,101377.56
2022-10-13T19:21:09.935Z,101374.22
2022-10-13T19:23:37.124Z,101374.47
2022-10-13T19:26:17.962Z,101378.28
2022-10-13T19:28:46.626Z,101378.53
2022-10-13T19:31:21.135Z,101380.38
2022-10-13T19:33:50.834Z,101380.38
2022-10-13T19:36:33.888Z,101383.38
2022-10-13T19:39:06.157Z,101385.53
2022-10-13T19:41:34.449Z,101379.22
2022-10-13T19:44:01.630Z,101375.06
2022-10-13T19:46:28.742Z,101380.78
2022-10-13T19:48:56.081Z,101374.97
2022-10-13T19:51:23.226Z,101372.97
2022-10-13T19:53:50.215Z,101376.44
2022-10-13T19:56:26.772Z,101376.94
2022-10-13T19:58:55.141Z,101380.19
2022-10-13T20:01:24.185Z,101379.59
2022-10-13T20:03:52.902Z,101385.34
2022-10-13T20:06:21.126Z,101379.00
2022-10-13T20:08:49.101Z,101381.66
2022-10-13T20:11:23.722Z,101384.66
2022-10-13T20:13:53.049Z,101386.56
2022-10-13T20:16:24.275Z,101384.09
2022-10-13T20:18:53.104Z,101382.16
2022-10-13T20:21:19.639Z,101379.69
2022-10-13T20:23:46.150Z,101381.00
2022-10-13T20:26:13.360Z,101381.47
2022-10-13T20:28:43.090Z,101388.06
2022-10-13T20:31:11.535Z,101376.25
2022-10-13T20:33:38.455Z,101380.06
2022-10-13T20:36:07.993Z,101375.41
2022-10-13T20:38:36.062Z,101381.97
2022-10-13T20:41:16.936Z,101384.97
2022-10-13T20:43:44.437Z,101383.56
2022-10-13T20:46:11.587Z,101388.19
2022-10-13T20:49:08.727Z,101393.91
2022-10-13T20:51:27.379Z,101392.25
2022-10-13T20:53:54.215Z,101390.56
2022-10-13T20:56:23.671Z,101388.06
2022-10-13T20:58:51.396Z,101394.38
2022-10-13T21:01:19.677Z,101389.97
2022-10-13T21:03:49.846Z,101386.41
2022-10-13T21:06:16.376Z,101389.38
2022-10-13T21:08:45.279Z,101387.97
2022-10-13T21:11:14.592Z,101389.88
2022-10-13T21:13:43.013Z,101389.28
2022-10-13T21:16:14.462Z,101389.53
2022-10-13T21:18:50.233Z,101395.88
2022-10-13T21:21:20.212Z,101392.28
2022-10-13T21:23:51.505Z,101391.44
2022-10-13T21:26:21.686Z,101388.09
2022-10-13T21:28:49.911Z,101387.84
2022-10-13T21:31:17.766Z,101377.41
2022-10-13T21:33:44.749Z,101383.69
2022-10-13T21:36:13.219Z,101383.69
2022-10-13T21:38:40.743Z,101382.06
2022-10-13T21:41:09.099Z,101385.88
2022-10-13T21:43:35.971Z,101385.28
2022-10-13T21:46:09.954Z,101386.34
2022-10-13T21:48:37.122Z,101387.41
2022-10-13T21:51:18.059Z,101379.19
2022-10-13T21:53:49.031Z,101383.84
2022-10-13T21:56:16.163Z,101383.84
2022-10-13T21:58:42.648Z,101385.16
2022-10-13T22:01:09.450Z,101377.19
2022-10-13T22:03:36.018Z,101382.69
2022-10-13T22:06:15.888Z,101371.97
2022-10-13T22:08:46.378Z,101380.19
2022-10-13T22:11:13.574Z,101370.53
2022-10-13T22:13:40.735Z,101372.69
2022-10-13T22:16:10.855Z,101371.00
2022-10-13T22:18:37.363Z,101370.19
2022-10-13T22:21:07.071Z,101368.53
2022-10-13T22:23:33.593Z,101370.66
2022-10-13T22:26:00.510Z,101372.81
2022-10-13T22:28:27.123Z,101362.34
2022-10-13T22:30:53.737Z,101370.81
2022-10-13T22:33:20.442Z,101369.97
2022-10-13T22:35:47.075Z,101367.50
2022-10-13T22:38:14.314Z,101361.16
2022-10-13T22:40:41.690Z,101377.59
2022-10-13T22:43:08.695Z,101359.50
2022-10-13T22:45:35.286Z,101360.81
2022-10-13T22:48:02.268Z,101360.81
2022-10-13T22:50:29.352Z,101354.50
2022-10-13T22:52:55.869Z,101352.84
2022-10-13T22:55:22.576Z,101362.97
2022-10-13T22:57:49.064Z,101358.81
2022-10-13T23:00:16.379Z,101355.22
2022-10-13T23:02:42.889Z,101358.81
2022-10-13T23:05:09.560Z,101352.47
2022-10-13T23:07:36.071Z,101359.88
2022-10-13T23:10:02.617Z,101359.88
2022-10-13T23:12:29.107Z,101356.31
2022-10-13T23:14:55.592Z,101354.41
2022-10-13T23:17:22.474Z,101351.66
2022-10-13T23:19:49.254Z,101351.06
2022-10-13T23:22:15.775Z,101349.41
2022-10-13T23:24:42.250Z,101346.69
2022-10-13T23:27:08.753Z,101340.59
2022-10-13T23:29:35.235Z,101347.16
2022-10-13T23:32:04.152Z,101345.25
2022-10-13T23:34:33.243Z,101343.84
2022-10-13T23:36:59.803Z,101340.25
2022-10-13T23:39:26.447Z,101336.69
2022-10-13T23:41:52.967Z,101335.03
2022-10-13T23:44:19.439Z,101332.53
2022-10-13T23:46:45.944Z,101331.47
2022-10-13T23:49:13.547Z,101326.81
2022-10-13T23:51:43.381Z,101320.72
2022-10-13T23:54:10.304Z,101327.06
2022-10-13T23:56:37.688Z,101325.13
2022-10-13T23:59:04.466Z,101326.19
